createdAt,value
2019-03-08T00:00:49.987Z,69.94
2019-03-08T00:03:37.724Z,69.91
2019-03-08T00:06:06.113Z,69.75
2019-03-08T00:08:53.854Z,69.78
2019-03-08T00:11:22.242Z,68.70
2019-03-08T00:16:44.393Z,69.52
2019-03-08T00:19:31.909Z,70.04
2019-03-08T00:24:34.097Z,70.93
2019-03-08T00:27:04.227Z,71.13
2019-03-08T00:29:51.860Z,73.15
2019-03-08T00:32:39.380Z,73.55
2019-03-08T00:35:47.699Z,74.81
2019-03-08T00:38:16.111Z,75.36
2019-03-08T00:40:46.222Z,75.55
2019-03-08T00:43:14.628Z,75.67
2019-03-08T00:49:10.394Z,76.15
2019-03-08T00:54:45.450Z,75.19
2019-03-08T00:57:33.094Z,75.71
2019-03-08T01:00:01.495Z,74.93
2019-03-08T01:02:31.605Z,74.91
2019-03-08T01:05:19.309Z,74.79
2019-03-08T01:07:47.713Z,74.79
2019-03-08T01:10:35.487Z,74.92
2019-03-08T01:13:23.432Z,75.23
2019-03-08T01:21:33.827Z,76.58
2019-03-08T01:24:21.349Z,78.19
2019-03-08T01:29:37.508Z,80.72
2019-03-08T01:32:25.050Z,82.32
2019-03-08T01:34:53.411Z,83.47
2019-03-08T01:37:41.044Z,84.61
2019-03-08T01:40:30.720Z,85.50
2019-03-08T01:43:18.355Z,85.95
2019-03-08T01:45:46.751Z,86.59
2019-03-08T01:48:34.261Z,87.02
2019-03-08T01:51:02.664Z,87.31
2019-03-08T01:53:50.173Z,86.95
2019-03-08T01:56:18.566Z,87.44
2019-03-08T01:58:46.962Z,87.28
2019-03-08T02:01:15.355Z,87.26
2019-03-08T02:03:43.742Z,86.78
2019-03-08T02:06:31.257Z,86.41
2019-03-08T02:08:59.653Z,86.67
2019-03-08T02:11:28.046Z,86.87
2019-03-08T02:14:15.687Z,86.77
2019-03-08T02:16:45.802Z,86.97
2019-03-08T02:21:48.233Z,86.72
2019-03-08T02:24:16.628Z,87.02
2019-03-08T02:27:04.128Z,87.37
2019-03-08T02:29:32.530Z,87.87
2019-03-08T02:32:00.918Z,88.81
2019-03-08T02:34:29.314Z,89.89
2019-03-08T02:37:16.948Z,89.86
2019-03-08T02:39:45.350Z,90.31
2019-03-08T02:42:32.986Z,90.65
2019-03-08T02:45:01.387Z,90.93
2019-03-08T02:47:49.022Z,91.17
2019-03-08T02:50:57.336Z,90.90
2019-03-08T02:53:44.964Z,90.17
2019-03-08T02:56:13.365Z,89.70
2019-03-08T02:59:00.996Z,89.71
2019-03-08T03:01:29.400Z,89.60
2019-03-08T03:03:57.788Z,89.46
2019-03-08T03:06:45.299Z,89.05
2019-03-08T03:09:13.860Z,88.54
2019-03-08T03:11:42.257Z,88.62
2019-03-08T03:14:10.642Z,88.35
2019-03-08T03:16:58.287Z,88.63
2019-03-08T03:19:26.678Z,88.36
2019-03-08T03:22:14.192Z,88.82
2019-03-08T03:24:42.591Z,88.97
2019-03-08T03:27:30.224Z,88.85
2019-03-08T03:29:58.906Z,89.35
2019-03-08T03:32:46.663Z,89.76
2019-03-08T03:35:34.181Z,90.11
2019-03-08T03:38:02.855Z,90.31
2019-03-08T03:43:44.897Z,91.37
2019-03-08T03:46:13.306Z,91.39
2019-03-08T03:49:00.946Z,91.24
2019-03-08T03:51:31.059Z,91.46
2019-03-08T03:54:18.564Z,91.24
2019-03-08T03:57:06.334Z,91.49
2019-03-08T03:59:53.836Z,91.67
2019-03-08T04:02:22.306Z,92.07
2019-03-08T04:07:38.139Z,93.16
2019-03-08T04:10:46.452Z,93.28
2019-03-08T04:13:14.909Z,93.25
2019-03-08T04:16:02.421Z,93.38
2019-03-08T04:18:30.814Z,93.55
2019-03-08T04:20:59.204Z,93.73
2019-03-08T04:23:29.320Z,93.70
2019-03-08T04:25:57.717Z,93.69
2019-03-08T04:31:13.545Z,94.39
2019-03-08T04:33:41.934Z,94.46
2019-03-08T04:36:30.359Z,94.78
2019-03-08T04:39:18.897Z,95.02
2019-03-08T04:41:49.009Z,94.88
2019-03-08T04:44:17.396Z,94.91
2019-03-08T04:46:45.788Z,95.14
2019-03-08T04:49:14.183Z,95.64
2019-03-08T04:52:01.696Z,96.32
2019-03-08T04:54:30.087Z,96.80
2019-03-08T04:57:17.728Z,97.38
2019-03-08T05:00:05.367Z,98.02
2019-03-08T05:02:34.042Z,98.29
2019-03-08T05:05:02.433Z,97.93
2019-03-08T05:07:30.837Z,98.19
2019-03-08T05:10:18.465Z,98.50
2019-03-08T05:13:05.981Z,98.85
2019-03-08T05:15:34.368Z,99.20
2019-03-08T05:18:02.765Z,99.07
2019-03-08T05:20:31.151Z,98.88
2019-03-08T05:23:01.330Z,98.58
2019-03-08T05:25:48.956Z,99.00
2019-03-08T05:28:17.358Z,98.81
2019-03-08T05:30:45.752Z,98.29
2019-03-08T05:33:16.129Z,98.20
2019-03-08T05:35:44.513Z,98.48
2019-03-08T05:38:12.914Z,98.82
2019-03-08T05:46:03.172Z,98.65
2019-03-08T05:48:50.634Z,98.61
2019-03-08T05:51:19.024Z,98.77
2019-03-08T05:53:47.420Z,98.74
2019-03-08T05:56:15.806Z,98.79
2019-03-08T05:59:03.587Z,98.91
2019-03-08T06:01:51.108Z,99.15
2019-03-08T06:04:19.500Z,99.40
2019-03-08T06:06:47.896Z,99.08
2019-03-08T06:09:35.402Z,99.18
2019-03-08T06:12:23.145Z,99.31
2019-03-08T06:15:10.781Z,99.50
2019-03-08T06:17:39.176Z,99.25
2019-03-08T06:20:26.818Z,99.08
2019-03-08T06:22:55.225Z,98.36
2019-03-08T06:25:23.625Z,98.05
2019-03-08T06:28:31.930Z,97.69
2019-03-08T06:31:00.333Z,97.13
2019-03-08T06:33:47.983Z,96.03
2019-03-08T06:36:37.211Z,95.54
2019-03-08T06:39:45.513Z,95.02
2019-03-08T06:44:48.153Z,93.46
2019-03-08T06:47:16.549Z,93.69
2019-03-08T06:49:44.942Z,94.13
2019-03-08T06:52:13.342Z,93.71
2019-03-08T06:54:41.738Z,93.86
2019-03-08T06:57:29.385Z,93.67
2019-03-08T07:02:46.861Z,94.33
2019-03-08T07:05:15.299Z,94.20
2019-03-08T07:07:43.664Z,92.88
2019-03-08T07:13:18.742Z,92.66
2019-03-08T07:15:47.135Z,92.34
2019-03-08T07:18:34.794Z,92.45
2019-03-08T07:21:22.470Z,91.96
2019-03-08T07:24:09.986Z,92.18
2019-03-08T07:26:57.500Z,92.81
2019-03-08T07:32:39.899Z,93.86
2019-03-08T07:35:48.203Z,93.73
2019-03-08T07:38:35.729Z,93.63
2019-03-08T07:44:12.324Z,93.41
2019-03-08T07:50:08.183Z,93.92
2019-03-08T07:52:55.946Z,94.37
2019-03-08T07:58:32.537Z,94.35
2019-03-08T08:04:47.915Z,93.43
2019-03-08T08:07:35.428Z,94.30
2019-03-08T08:10:43.742Z,93.62
2019-03-08T08:13:50.855Z,93.44
2019-03-08T08:16:38.362Z,93.73
2019-03-08T08:19:45.137Z,93.10
2019-03-08T08:22:32.645Z,93.12
2019-03-08T08:25:20.341Z,93.08
2019-03-08T08:28:07.845Z,92.48
2019-03-08T08:30:55.440Z,91.59
2019-03-08T08:33:42.959Z,91.35
2019-03-08T08:36:51.274Z,91.49
2019-03-08T08:39:38.798Z,90.97
2019-03-08T08:42:47.297Z,90.29
2019-03-08T08:45:34.812Z,89.54
2019-03-08T08:48:22.323Z,88.36
2019-03-08T08:53:48.759Z,81.84
2019-03-08T08:56:36.259Z,77.28
2019-03-08T08:59:44.591Z,72.87
2019-03-08T09:02:32.103Z,68.70
2019-03-08T09:05:19.629Z,66.32
2019-03-08T09:08:07.139Z,62.39
2019-03-08T09:13:49.332Z,63.13
2019-03-08T09:22:10.561Z,62.64
2019-03-08T09:24:58.081Z,66.26
2019-03-08T09:27:45.599Z,69.08
2019-03-08T09:30:53.912Z,72.90
2019-03-08T09:33:41.423Z,73.85
2019-03-08T09:36:28.950Z,77.07
2019-03-08T09:39:35.733Z,78.78
2019-03-08T09:45:31.313Z,74.28
2019-03-08T09:56:22.216Z,70.70
2019-03-08T09:59:09.732Z,72.76
2019-03-08T10:01:57.253Z,73.06
2019-03-08T10:07:53.270Z,77.87
2019-03-08T10:21:02.136Z,82.06
2019-03-08T10:23:49.647Z,81.47
2019-03-08T10:26:37.168Z,76.66
2019-03-08T10:34:48.957Z,68.74
2019-03-08T10:37:55.736Z,68.37
2019-03-08T10:40:43.269Z,69.27
2019-03-08T10:43:30.773Z,68.77
2019-03-08T10:46:18.290Z,70.27
2019-03-08T10:52:17.706Z,67.01
2019-03-08T10:55:03.419Z,70.08
2019-03-08T11:06:20.670Z,64.94
2019-03-08T11:11:57.264Z,61.07
2019-03-08T11:14:44.774Z,62.03
2019-03-08T11:20:07.566Z,61.98
2019-03-08T11:22:55.088Z,61.81
2019-03-08T11:25:42.600Z,62.33
2019-03-08T11:28:30.135Z,62.36
2019-03-08T11:31:17.646Z,61.30
2019-03-08T11:36:44.094Z,58.66
2019-03-08T11:45:15.656Z,55.10
2019-03-08T11:48:03.177Z,54.80
2019-03-08T11:51:10.027Z,54.37
2019-03-08T11:53:57.550Z,56.86
2019-03-08T11:56:45.059Z,57.60
2019-03-08T11:59:32.581Z,56.74
2019-03-08T12:02:39.637Z,57.22
2019-03-08T12:05:49.847Z,60.03
2019-03-08T12:11:32.683Z,60.56
2019-03-08T12:14:20.207Z,57.14
2019-03-08T12:17:07.721Z,55.43
2019-03-08T12:22:50.193Z,55.69
2019-03-08T12:25:37.698Z,54.77
2019-03-08T12:28:25.224Z,53.28
2019-03-08T12:31:12.770Z,51.38
2019-03-08T12:34:00.298Z,52.05
2019-03-08T12:36:47.813Z,50.21
2019-03-08T12:39:35.358Z,49.55
2019-03-08T12:45:31.218Z,51.04
2019-03-08T12:48:23.828Z,51.86
2019-03-08T12:51:27.230Z,52.42
2019-03-08T12:54:14.751Z,51.69
2019-03-08T12:57:02.282Z,53.83
2019-03-08T13:00:09.062Z,53.41
2019-03-08T13:02:56.582Z,54.39
2019-03-08T13:05:44.090Z,56.27
2019-03-08T13:08:31.784Z,56.54
2019-03-08T13:11:19.428Z,60.04
2019-03-08T13:14:07.086Z,62.00
2019-03-08T13:16:35.517Z,63.51
2019-03-08T13:19:03.923Z,61.61
2019-03-08T13:21:32.321Z,62.13
2019-03-08T13:24:19.839Z,60.38
2019-03-08T13:26:48.243Z,60.84
2019-03-08T13:29:16.651Z,59.28
2019-03-08T13:39:41.329Z,55.77
2019-03-08T13:42:28.841Z,54.88
2019-03-08T13:44:57.257Z,54.47
2019-03-08T13:50:53.012Z,53.83
2019-03-08T13:53:21.408Z,53.17
2019-03-08T13:56:09.065Z,53.94
2019-03-08T14:01:24.922Z,53.83
2019-03-08T14:03:53.334Z,55.15
2019-03-08T14:06:40.977Z,54.80
2019-03-08T14:12:04.503Z,54.66
2019-03-08T14:14:33.033Z,55.71
2019-03-08T14:17:01.524Z,57.78
2019-03-08T14:19:30.474Z,56.31
2019-03-08T14:21:58.958Z,56.69
2019-03-08T14:24:27.547Z,57.93
2019-03-08T14:27:15.306Z,56.88
2019-03-08T14:30:23.812Z,58.07
2019-03-08T14:32:52.373Z,59.42
2019-03-08T14:37:57.151Z,61.16
2019-03-08T14:40:46.310Z,60.92
2019-03-08T14:43:53.897Z,59.51
2019-03-08T14:49:02.200Z,61.24
2019-03-08T14:51:30.932Z,60.75
2019-03-08T14:54:18.601Z,62.12
2019-03-08T14:59:42.188Z,61.80
2019-03-08T15:02:13.595Z,62.75
2019-03-08T15:07:28.257Z,62.42
2019-03-08T15:09:56.671Z,61.22
2019-03-08T15:12:48.884Z,62.09
2019-03-08T15:15:57.969Z,60.66
2019-03-08T15:18:25.911Z,61.64
2019-03-08T15:20:58.282Z,61.17
2019-03-08T15:23:25.040Z,60.95
2019-03-08T15:26:12.787Z,60.82
2019-03-08T15:29:00.448Z,61.57
2019-03-08T15:31:28.836Z,60.81
2019-03-08T15:33:57.233Z,61.52
2019-03-08T15:36:27.364Z,58.85
2019-03-08T15:38:58.862Z,59.46
2019-03-08T15:41:45.148Z,58.72
2019-03-08T15:44:13.543Z,58.79
2019-03-08T15:49:16.260Z,58.89
2019-03-08T15:52:04.660Z,58.27
2019-03-08T15:54:34.046Z,57.30
2019-03-08T15:57:21.740Z,56.96
2019-03-08T15:59:50.141Z,56.17
2019-03-08T16:02:37.671Z,57.76
2019-03-08T16:05:45.987Z,57.35
2019-03-08T16:08:16.103Z,57.08
2019-03-08T16:11:03.760Z,56.18
2019-03-08T16:13:32.156Z,56.03
2019-03-08T16:16:19.812Z,55.91
2019-03-08T16:19:07.322Z,56.64
2019-03-08T16:21:35.727Z,55.40
2019-03-08T16:24:05.857Z,56.44
2019-03-08T16:26:53.359Z,56.64
2019-03-08T16:29:40.735Z,55.03
2019-03-08T16:34:44.074Z,55.37
2019-03-08T16:37:31.356Z,55.88
2019-03-08T16:40:18.633Z,55.76
2019-03-08T16:43:07.659Z,56.14
2019-03-08T16:45:56.177Z,55.73
2019-03-08T16:54:17.243Z,56.08
2019-03-08T17:02:35.097Z,57.87
2019-03-08T17:08:30.716Z,58.55
2019-03-08T17:16:42.713Z,58.78
2019-03-08T17:19:51.028Z,58.59
2019-03-08T17:25:14.140Z,58.25
2019-03-08T17:28:01.665Z,58.53
2019-03-08T17:30:49.177Z,58.32
2019-03-08T17:33:36.705Z,58.54
2019-03-08T17:36:45.008Z,58.83
2019-03-08T17:39:32.526Z,59.33
2019-03-08T17:42:20.035Z,59.24
2019-03-08T17:45:26.817Z,60.07
2019-03-08T17:48:14.341Z,60.31
2019-03-08T17:53:50.945Z,60.65
2019-03-08T17:56:38.457Z,61.21
2019-03-08T17:59:26.157Z,61.19
2019-03-08T18:02:13.701Z,62.13
2019-03-08T18:05:01.225Z,61.72
2019-03-08T18:10:58.639Z,61.81
2019-03-08T18:19:00.081Z,63.19
2019-03-08T18:21:47.597Z,63.20
2019-03-08T18:24:35.121Z,63.63
2019-03-08T18:27:22.635Z,63.33
2019-03-08T18:30:10.159Z,63.41
2019-03-08T18:32:57.676Z,63.42
2019-03-08T18:35:45.378Z,63.47
2019-03-08T18:41:21.978Z,63.33
2019-03-08T18:44:09.502Z,63.55
2019-03-08T18:46:57.035Z,63.26
2019-03-08T18:49:44.559Z,63.44
2019-03-08T18:52:32.088Z,64.27
2019-03-08T18:55:19.611Z,63.88
2019-03-08T18:58:07.131Z,63.13
2019-03-08T19:01:13.996Z,63.18
2019-03-08T19:04:01.590Z,63.44
2019-03-08T19:07:08.363Z,63.40
2019-03-08T19:18:06.276Z,64.78
2019-03-08T19:20:53.844Z,65.09
2019-03-08T19:23:41.358Z,64.90
2019-03-08T19:26:28.875Z,64.83
2019-03-08T19:32:05.466Z,65.04
2019-03-08T19:35:12.297Z,65.57
2019-03-08T19:37:59.828Z,64.76
2019-03-08T19:40:47.354Z,65.20
2019-03-08T19:43:35.038Z,64.78
2019-03-08T19:46:41.893Z,65.02
2019-03-08T19:49:29.438Z,65.76
2019-03-08T19:52:16.961Z,65.76
2019-03-08T19:55:04.503Z,65.54
2019-03-08T20:01:00.332Z,66.80
2019-03-08T20:06:36.938Z,68.28
2019-03-08T20:09:45.253Z,68.84
2019-03-08T20:12:32.839Z,68.53
2019-03-08T20:15:20.462Z,68.94
2019-03-08T20:18:08.033Z,69.16
2019-03-08T20:23:50.484Z,68.89
2019-03-08T20:26:38.081Z,69.47
2019-03-08T20:29:25.593Z,69.60
2019-03-08T20:34:48.862Z,69.73
2019-03-08T20:37:36.385Z,69.88
2019-03-08T20:40:44.761Z,69.96
2019-03-08T20:46:09.254Z,70.35
2019-03-08T20:48:56.769Z,69.78
2019-03-08T20:52:05.083Z,70.14
2019-03-08T20:54:35.195Z,69.98
2019-03-08T20:57:22.833Z,69.71
2019-03-08T20:59:51.236Z,69.78
2019-03-08T21:02:19.639Z,70.40
2019-03-08T21:07:37.215Z,70.26
2019-03-08T21:10:24.952Z,70.21
2019-03-08T21:15:26.952Z,70.69
2019-03-08T21:18:14.604Z,70.41
2019-03-08T21:23:51.419Z,71.65
2019-03-08T21:26:19.819Z,70.47
2019-03-08T21:31:22.812Z,70.90
2019-03-08T21:34:10.339Z,70.17
2019-03-08T21:36:38.806Z,70.08
2019-03-08T21:39:47.121Z,70.28
2019-03-08T21:42:47.284Z,70.25
2019-03-08T21:45:55.828Z,71.05
2019-03-08T21:48:24.233Z,71.61
2019-03-08T21:51:32.536Z,70.88
2019-03-08T21:54:00.944Z,70.69
2019-03-08T21:56:29.350Z,71.41
2019-03-08T21:58:57.754Z,71.23
2019-03-08T22:01:26.154Z,71.57
2019-03-08T22:06:33.479Z,72.48
2019-03-08T22:12:16.289Z,72.50
2019-03-08T22:14:44.735Z,72.25
2019-03-08T22:20:00.586Z,73.41
2019-03-08T22:22:48.218Z,73.33
2019-03-08T22:25:16.616Z,73.59
2019-03-08T22:30:32.458Z,74.24
2019-03-08T22:33:00.901Z,74.09
2019-03-08T22:35:29.259Z,74.17
2019-03-08T22:37:57.663Z,73.79
2019-03-08T22:40:26.066Z,73.87
2019-03-08T22:42:54.467Z,73.76
2019-03-08T22:45:22.867Z,73.44
2019-03-08T22:47:51.266Z,74.00
2019-03-08T22:50:21.386Z,73.78
2019-03-08T22:52:49.782Z,73.66
2019-03-08T22:55:37.423Z,73.76
2019-03-08T22:58:05.820Z,73.32
2019-03-08T23:01:15.911Z,73.21
2019-03-08T23:03:44.318Z,73.45
2019-03-08T23:06:32.036Z,73.46
2019-03-08T23:09:19.549Z,72.87
2019-03-08T23:11:47.943Z,73.23
2019-03-08T23:14:35.483Z,72.70
2019-03-08T23:17:23.122Z,72.60
2019-03-08T23:19:53.247Z,72.17
2019-03-08T23:22:21.642Z,72.39
2019-03-08T23:24:50.036Z,73.11
2019-03-08T23:27:37.542Z,72.81
2019-03-08T23:30:45.862Z,73.21
2019-03-08T23:33:14.247Z,72.89
2019-03-08T23:36:03.626Z,72.43
2019-03-08T23:41:19.453Z,72.71
2019-03-08T23:44:06.969Z,72.43
2019-03-08T23:49:22.835Z,72.02
2019-03-08T23:51:51.266Z,73.31
2019-03-08T23:54:19.705Z,73.44
